createdAt,value
2023-02-18T00:01:34.745Z,6.68
2023-02-18T00:04:02.758Z,6.57
2023-02-18T00:06:34.047Z,6.62
2023-02-18T00:09:02.847Z,6.60
2023-02-18T00:11:31.932Z,6.52
2023-02-18T00:14:01.667Z,6.49
2023-02-18T00:16:32.447Z,6.43
2023-02-18T00:19:02.716Z,6.41
2023-02-18T00:21:30.912Z,6.37
2023-02-18T00:23:59.112Z,6.37
2023-02-18T00:26:27.664Z,6.42
2023-02-18T00:28:55.585Z,6.35
2023-02-18T00:31:25.516Z,6.33
2023-02-18T00:33:55.401Z,6.33
2023-02-18T00:36:23.928Z,6.26
2023-02-18T00:38:53.466Z,6.25
2023-02-18T00:41:22.884Z,6.24
2023-02-18T00:43:50.851Z,6.17
2023-02-18T00:46:18.831Z,6.14
2023-02-18T00:48:46.808Z,6.12
2023-02-18T00:51:16.194Z,6.07
2023-02-18T00:53:44.135Z,6.11
2023-02-18T00:56:12.243Z,6.02
2023-02-18T00:58:40.168Z,5.97
2023-02-18T01:01:09.167Z,5.95
2023-02-18T01:03:37.305Z,5.94
2023-02-18T01:06:06.340Z,5.94
2023-02-18T01:08:36.114Z,5.95
2023-02-18T01:11:04.977Z,5.96
2023-02-18T01:13:33.051Z,5.94
2023-02-18T01:16:01.072Z,5.93
2023-02-18T01:18:29.027Z,5.90
2023-02-18T01:20:56.952Z,5.87
2023-02-18T01:23:25.579Z,5.88
2023-02-18T01:25:56.241Z,5.88
2023-02-18T01:28:25.832Z,5.91
2023-02-18T01:30:54.502Z,5.91
2023-02-18T01:33:23.264Z,5.89
2023-02-18T01:35:51.376Z,5.92
2023-02-18T01:38:19.320Z,5.87
2023-02-18T01:40:49.452Z,5.87
2023-02-18T01:43:19.761Z,5.89
2023-02-18T01:46:05.883Z,5.87
2023-02-18T01:48:39.525Z,5.84
2023-02-18T01:51:11.732Z,5.82
2023-02-18T01:53:45.336Z,5.76
2023-02-18T01:56:17.947Z,5.73
2023-02-18T01:58:47.294Z,5.74
2023-02-18T02:01:15.225Z,5.75
2023-02-18T02:03:43.228Z,5.72
2023-02-18T02:06:16.792Z,5.72
2023-02-18T02:08:45.944Z,5.73
2023-02-18T02:11:22.652Z,5.76
2023-02-18T02:14:03.114Z,5.77
2023-02-18T02:16:37.653Z,5.77
2023-02-18T02:19:30.504Z,5.76
2023-02-18T02:22:23.676Z,5.77
2023-02-18T02:25:10.106Z,5.77
2023-02-18T02:27:58.374Z,5.76
2023-02-18T02:31:00.350Z,5.78
2023-02-18T02:34:06.169Z,5.79
2023-02-18T02:36:38.524Z,5.82
2023-02-18T02:39:10.021Z,5.86
2023-02-18T02:41:47.523Z,5.85
2023-02-18T02:44:22.709Z,5.86
2023-02-18T02:46:53.821Z,5.91
2023-02-18T02:49:29.949Z,5.96
2023-02-18T02:52:02.939Z,5.96
2023-02-18T02:54:30.888Z,6.00
2023-02-18T02:57:34.576Z,5.97
2023-02-18T03:00:05.547Z,5.94
2023-02-18T03:02:39.939Z,5.94
2023-02-18T03:05:15.626Z,5.98
2023-02-18T03:07:58.236Z,5.96
2023-02-18T03:10:38.036Z,5.97
2023-02-18T03:13:11.011Z,6.04
2023-02-18T03:15:43.164Z,6.05
2023-02-18T03:18:17.473Z,6.11
2023-02-18T03:20:50.411Z,6.10
2023-02-18T03:23:24.593Z,6.08
2023-02-18T03:25:52.611Z,6.07
2023-02-18T03:28:21.659Z,6.10
2023-02-18T03:30:52.120Z,6.10
2023-02-18T03:33:22.584Z,6.17
2023-02-18T03:35:51.278Z,6.10
2023-02-18T03:38:23.341Z,6.09
2023-02-18T03:40:51.463Z,6.12
2023-02-18T03:43:19.369Z,6.14
2023-02-18T03:45:47.398Z,6.15
2023-02-18T03:48:15.522Z,6.11
2023-02-18T03:50:43.505Z,6.06
2023-02-18T03:53:11.429Z,6.07
2023-02-18T03:55:40.731Z,6.07
2023-02-18T03:58:08.648Z,6.05
2023-02-18T04:00:36.608Z,6.03
2023-02-18T04:03:04.591Z,6.00
2023-02-18T04:05:32.938Z,5.97
2023-02-18T04:08:00.837Z,5.96
2023-02-18T04:10:28.790Z,5.92
2023-02-18T04:12:58.111Z,5.90
2023-02-18T04:15:26.067Z,5.90
2023-02-18T04:20:42.656Z,5.86
2023-02-18T04:23:10.658Z,5.88
2023-02-18T04:25:38.823Z,5.85
2023-02-18T04:28:11.321Z,5.88
2023-02-18T04:30:39.328Z,5.86
2023-02-18T04:33:07.341Z,5.84
2023-02-18T04:35:36.748Z,5.83
2023-02-18T04:38:04.884Z,5.80
2023-02-18T04:40:32.779Z,5.82
2023-02-18T04:43:01.202Z,5.81
2023-02-18T04:45:30.784Z,5.78
2023-02-18T04:47:58.703Z,5.78
2023-02-18T04:50:26.614Z,5.80
2023-02-18T04:52:54.690Z,5.80
2023-02-18T04:55:22.930Z,5.80
2023-02-18T04:57:50.860Z,5.78
2023-02-18T05:00:20.444Z,5.80
2023-02-18T05:02:49.715Z,5.78
2023-02-18T05:05:17.821Z,5.78
2023-02-18T05:07:45.697Z,5.78
2023-02-18T05:10:16.841Z,5.79
2023-02-18T05:12:44.945Z,5.78
2023-02-18T05:15:12.954Z,5.78
2023-02-18T05:17:40.870Z,5.78
2023-02-18T05:20:11.080Z,5.80
2023-02-18T05:22:39.335Z,5.79
2023-02-18T05:25:07.791Z,5.80
2023-02-18T05:27:35.786Z,5.79
2023-02-18T05:30:03.735Z,5.79
2023-02-18T05:32:31.787Z,5.79
2023-02-18T05:34:59.745Z,5.76
2023-02-18T05:37:29.064Z,5.75
2023-02-18T05:39:56.995Z,5.74
2023-02-18T05:42:24.930Z,5.75
2023-02-18T05:44:52.864Z,5.72
2023-02-18T05:47:20.768Z,5.75
2023-02-18T05:49:48.652Z,5.71
2023-02-18T05:52:16.554Z,5.71
2023-02-18T05:54:45.875Z,5.70
2023-02-18T05:57:15.450Z,5.71
2023-02-18T05:59:43.620Z,5.67
2023-02-18T06:02:11.657Z,5.69
2023-02-18T06:04:42.160Z,5.66
2023-02-18T06:07:10.116Z,5.66
2023-02-18T06:09:38.127Z,5.68
2023-02-18T06:12:07.989Z,5.67
2023-02-18T06:14:35.915Z,5.68
2023-02-18T06:17:03.821Z,5.66
2023-02-18T06:19:31.743Z,5.69
2023-02-18T06:21:59.615Z,5.66
2023-02-18T06:24:29.960Z,5.65
2023-02-18T06:26:58.105Z,5.66
2023-02-18T06:29:29.833Z,5.63
2023-02-18T06:31:57.931Z,5.65
2023-02-18T06:34:26.381Z,5.66
2023-02-18T06:36:54.337Z,5.65
2023-02-18T06:39:22.214Z,5.62
2023-02-18T06:41:50.114Z,5.59
2023-02-18T06:44:18.028Z,5.57
2023-02-18T06:46:47.399Z,5.58
2023-02-18T06:49:15.328Z,5.58
2023-02-18T06:51:43.243Z,5.56
2023-02-18T06:54:11.148Z,5.56
2023-02-18T06:56:39.049Z,5.57
2023-02-18T06:59:08.458Z,5.57
2023-02-18T07:01:36.402Z,5.58
2023-02-18T07:04:06.085Z,5.58
2023-02-18T07:06:34.052Z,5.62
2023-02-18T13:50:42.124Z,9.16
2023-02-18T13:53:31.089Z,9.15
2023-02-18T13:56:02.929Z,9.16
2023-02-18T13:58:37.712Z,9.17
2023-02-18T14:01:07.739Z,9.15
2023-02-18T14:03:52.441Z,9.15
2023-02-18T14:06:23.422Z,9.15
2023-02-18T14:08:51.778Z,9.11
2023-02-18T14:11:41.611Z,9.08
2023-02-18T14:14:31.897Z,9.02
2023-02-18T14:17:33.196Z,9.02
2023-02-18T14:20:36.282Z,8.99
2023-02-18T14:23:13.524Z,8.92
2023-02-18T14:25:42.886Z,8.91
2023-02-18T14:28:39.141Z,8.86
2023-02-18T14:31:26.163Z,8.84
2023-02-18T14:34:29.015Z,8.82
2023-02-18T14:37:06.038Z,8.82
2023-02-18T14:39:46.743Z,8.80
2023-02-18T14:42:25.592Z,8.75
2023-02-18T14:45:14.653Z,8.69
2023-02-18T14:47:56.143Z,8.57
2023-02-18T14:50:24.694Z,8.57
2023-02-18T14:52:55.259Z,8.54
2023-02-18T14:55:27.733Z,8.48
2023-02-18T14:57:57.324Z,8.45
2023-02-18T15:00:29.102Z,8.50
2023-02-18T15:02:57.040Z,8.43
2023-02-18T15:05:27.230Z,8.30
2023-02-18T15:08:03.613Z,8.29
2023-02-18T15:10:37.654Z,8.32
2023-02-18T15:13:07.823Z,8.20
2023-02-18T15:15:36.591Z,8.18
2023-02-18T15:18:07.838Z,8.19
2023-02-18T15:20:36.368Z,7.99
2023-02-18T15:23:04.319Z,7.99
2023-02-18T15:25:33.935Z,8.02
2023-02-18T15:28:01.855Z,7.98
2023-02-18T15:30:32.111Z,8.05
2023-02-18T15:33:01.623Z,8.01
2023-02-18T15:35:31.500Z,7.93
2023-02-18T15:38:01.311Z,8.06
2023-02-18T15:40:32.540Z,7.98
2023-02-18T15:43:03.459Z,7.92
2023-02-18T15:45:33.472Z,7.84
2023-02-18T15:48:01.990Z,7.85
2023-02-18T15:50:32.494Z,7.82
2023-02-18T15:53:05.688Z,7.86
2023-02-18T15:55:35.752Z,7.94
2023-02-18T15:58:06.883Z,7.88
2023-02-18T16:00:38.489Z,7.84
2023-02-18T16:03:14.956Z,7.87
2023-02-18T16:05:43.268Z,7.88
2023-02-18T16:08:16.282Z,7.79
2023-02-18T16:10:48.829Z,7.85
2023-02-18T16:13:19.263Z,7.84
2023-02-18T16:15:50.053Z,7.90
2023-02-18T16:18:26.813Z,7.51
2023-02-18T16:20:56.640Z,7.58
2023-02-18T16:23:31.401Z,7.41
2023-02-18T16:26:11.083Z,7.56
2023-02-18T16:28:43.643Z,7.37
2023-02-18T16:31:12.131Z,7.20
2023-02-18T16:33:40.137Z,7.18
2023-02-18T16:36:08.876Z,7.03
2023-02-18T16:38:37.339Z,7.20
2023-02-18T16:41:05.716Z,7.26
2023-02-18T16:43:33.696Z,7.04
2023-02-18T16:46:09.707Z,6.80
2023-02-18T16:48:41.278Z,7.10
2023-02-18T16:51:13.332Z,6.78
2023-02-18T16:53:41.283Z,7.13
2023-02-18T16:56:15.584Z,6.62
2023-02-18T16:58:43.896Z,6.85
2023-02-18T17:01:23.300Z,6.65
2023-02-18T17:03:51.897Z,6.78
2023-02-18T17:06:19.950Z,6.64
2023-02-18T17:08:48.244Z,6.58
2023-02-18T17:11:21.633Z,6.47
2023-02-18T17:13:50.439Z,6.59
2023-02-18T17:16:20.648Z,6.51
2023-02-18T17:18:49.216Z,6.50
2023-02-18T17:21:18.766Z,6.61
2023-02-18T17:23:49.520Z,6.37
2023-02-18T17:26:21.432Z,6.36
2023-02-18T17:28:49.431Z,6.56
2023-02-18T17:31:20.853Z,6.75
2023-02-18T17:33:48.876Z,6.62
2023-02-18T17:36:16.754Z,6.50
2023-02-18T17:38:44.663Z,6.49
2023-02-18T17:41:14.395Z,6.45
2023-02-18T17:43:42.456Z,6.43
2023-02-18T17:46:13.479Z,6.40
2023-02-18T17:48:42.811Z,6.22
2023-02-18T17:51:15.500Z,6.46
2023-02-18T17:53:43.423Z,6.19
2023-02-18T17:56:13.488Z,6.27
2023-02-18T17:58:41.434Z,6.24
2023-02-18T18:01:11.362Z,6.41
2023-02-18T18:03:39.472Z,6.23
2023-02-18T18:06:16.371Z,6.26
2023-02-18T18:08:44.317Z,6.12
2023-02-18T18:11:14.677Z,6.31
2023-02-18T18:13:42.611Z,6.09
2023-02-18T18:16:11.376Z,6.06
2023-02-18T18:18:39.338Z,5.91
2023-02-18T18:21:18.415Z,5.92
2023-02-18T18:23:46.366Z,5.98
2023-02-18T18:26:14.292Z,5.98
2023-02-18T18:28:42.251Z,5.93
2023-02-18T18:31:13.990Z,6.18
2023-02-18T18:33:42.975Z,5.93
2023-02-18T18:36:12.408Z,5.76
2023-02-18T18:38:40.307Z,5.88
2023-02-18T18:41:11.496Z,5.64
2023-02-18T18:43:40.450Z,5.66
2023-02-18T18:46:08.558Z,5.78
2023-02-18T18:48:36.516Z,5.70
2023-02-18T18:51:16.338Z,5.56
2023-02-18T18:53:46.089Z,5.72
2023-02-18T18:56:14.728Z,5.62
2023-02-18T18:58:50.895Z,5.46
2023-02-18T19:01:22.664Z,5.26
2023-02-18T19:03:50.756Z,5.27
2023-02-18T19:06:21.016Z,5.34
2023-02-18T19:08:50.269Z,5.31
2023-02-18T19:11:18.496Z,5.55
2023-02-18T19:13:46.446Z,5.21
2023-02-18T19:16:18.316Z,5.20
2023-02-18T19:18:46.328Z,5.20
2023-02-18T19:21:14.416Z,5.32
2023-02-18T19:23:42.451Z,5.38
2023-02-18T19:26:11.967Z,5.30
2023-02-18T19:28:39.987Z,5.36
2023-02-18T19:31:11.595Z,5.19
2023-02-18T19:33:45.594Z,5.13
2023-02-18T19:36:14.908Z,5.09
2023-02-18T19:38:43.084Z,5.00
2023-02-18T19:41:14.029Z,5.22
2023-02-18T19:43:42.857Z,5.08
2023-02-18T19:46:11.891Z,5.11
2023-02-18T19:48:40.142Z,5.11
2023-02-18T19:51:08.928Z,5.07
2023-02-18T19:53:37.328Z,4.82
2023-02-18T19:56:07.946Z,4.86
2023-02-18T19:58:40.114Z,5.04
2023-02-18T20:01:12.590Z,5.07
2023-02-18T20:03:40.538Z,4.92
2023-02-18T20:06:18.154Z,5.04
2023-02-18T20:08:46.148Z,4.78
2023-02-18T20:11:14.319Z,4.79
2023-02-18T20:13:43.907Z,4.97
2023-02-18T20:16:12.077Z,4.96
2023-02-18T20:18:40.038Z,4.82
2023-02-18T20:21:08.369Z,4.82
2023-02-18T20:23:36.493Z,4.80
2023-02-18T20:26:08.246Z,4.84
2023-02-18T20:28:36.185Z,4.75
2023-02-18T20:31:09.939Z,4.64
2023-02-18T20:33:38.159Z,4.74
2023-02-18T20:36:08.416Z,4.50
2023-02-18T20:38:36.970Z,4.67
2023-02-18T20:41:05.810Z,4.53
2023-02-18T20:43:33.800Z,4.74
2023-02-18T20:46:06.308Z,4.53
2023-02-18T20:49:11.579Z,4.71
2023-02-18T20:51:39.578Z,4.69
2023-02-18T20:54:09.968Z,4.43
2023-02-18T20:56:38.618Z,4.46
2023-02-18T20:59:06.937Z,4.61
2023-02-18T21:01:34.959Z,4.47
2023-02-18T21:04:04.269Z,4.55
2023-02-18T21:06:32.207Z,4.60
2023-02-18T21:09:00.105Z,4.60
2023-02-18T21:11:28.208Z,4.62
2023-02-18T21:13:57.122Z,4.90
2023-02-18T21:16:26.528Z,4.88
2023-02-18T21:18:54.622Z,4.72
2023-02-18T21:21:24.668Z,4.83
2023-02-18T21:23:52.994Z,4.55
2023-02-18T21:26:22.939Z,4.70
2023-02-18T21:28:52.368Z,4.79
2023-02-18T21:31:21.856Z,4.73
2023-02-18T21:33:49.890Z,4.63
2023-02-18T21:36:18.351Z,4.38
2023-02-18T21:38:52.657Z,4.48
2023-02-18T21:41:20.972Z,4.39
2023-02-18T21:43:49.433Z,4.76
2023-02-18T21:46:19.178Z,4.53
2023-02-18T21:49:06.873Z,4.51
2023-02-18T21:51:54.481Z,4.59
2023-02-18T21:54:25.384Z,4.47
2023-02-18T21:56:53.360Z,4.76
2023-02-18T21:59:21.862Z,4.55
2023-02-18T22:01:50.126Z,4.62
2023-02-18T22:04:18.102Z,4.71
2023-02-18T22:06:46.377Z,4.63
2023-02-18T22:09:14.663Z,4.40
2023-02-18T22:11:44.076Z,4.58
2023-02-18T22:14:13.069Z,4.71
2023-02-18T22:16:41.492Z,4.58
2023-02-18T22:19:09.801Z,4.53
2023-02-18T22:21:37.693Z,4.64
2023-02-18T22:24:06.318Z,4.70
2023-02-18T22:26:34.589Z,4.80
2023-02-18T22:29:03.930Z,4.92
2023-02-18T22:31:32.352Z,4.82
2023-02-18T22:34:01.350Z,4.93
2023-02-18T22:36:30.030Z,4.76
2023-02-18T22:38:58.889Z,4.84
2023-02-18T22:41:27.795Z,4.69
2023-02-18T22:43:56.369Z,4.67
2023-02-18T22:46:25.852Z,4.79
2023-02-18T22:48:54.481Z,4.84
2023-02-18T22:51:25.057Z,4.66
2023-02-18T22:53:53.926Z,4.77
2023-02-18T22:56:23.423Z,4.91
2023-02-18T22:58:52.100Z,4.96
2023-02-18T23:01:21.777Z,4.96
2023-02-18T23:03:51.810Z,5.02
2023-02-18T23:06:21.259Z,5.05
2023-02-18T23:08:50.197Z,5.04
2023-02-18T23:11:19.870Z,4.93
2023-02-18T23:14:09.411Z,4.92
2023-02-18T23:16:57.791Z,5.01
2023-02-18T23:19:28.640Z,5.05
2023-02-18T23:21:56.590Z,4.90
2023-02-18T23:24:24.559Z,4.82
2023-02-18T23:26:52.862Z,4.91
2023-02-18T23:29:20.821Z,5.00
2023-02-18T23:31:49.442Z,5.00
2023-02-18T23:34:18.052Z,5.03
2023-02-18T23:36:48.023Z,5.08
2023-02-18T23:39:19.052Z,5.10
2023-02-18T23:41:47.347Z,5.08
2023-02-18T23:44:16.624Z,5.02
2023-02-18T23:46:45.635Z,4.97
2023-02-18T23:49:15.644Z,5.00
2023-02-18T23:51:44.028Z,4.92
2023-02-18T23:54:13.310Z,4.87
2023-02-18T23:56:41.618Z,4.70
2023-02-18T23:59:09.579Z,4.56
